Time;durP1;ratioP1;P1;durP2;ratioP2;P2;SDS_P1;SDS_P2;PMS_P1;PMS_P2;Temp;Humidity;BMP_temperature;BMP_pressure;BME280_temperature;BME280_humidity;BME280_pressure;Samples;Min_cycle;Max_cycle;Signal;HPM_P1;HPM_P2
2023/02/08 00:00:06;;;;;;;37.63;22.47;;;-3.70;99.90;;;;;;5047348;28;20200;-84
2023/02/08 00:02:33;;;;;;;39.07;23.50;;;-3.70;99.90;;;;;;5039228;28;20292;-84
2023/02/08 00:05:00;;;;;;;35.60;22.63;;;-3.80;99.90;;;;;;5069532;28;20202;-85
2023/02/08 00:07:27;;;;;;;37.57;22.87;;;-3.70;99.90;;;;;;5057269;28;20666;-84
2023/02/08 00:09:54;;;;;;;36.60;23.50;;;-3.50;99.90;;;;;;5048278;28;20207;-84
2023/02/08 00:12:22;;;;;;;37.10;23.10;;;-3.40;99.90;;;;;;5055333;28;20360;-84
2023/02/08 00:14:49;;;;;;;38.77;23.23;;;-3.60;99.90;;;;;;5055041;28;20195;-84
2023/02/08 00:17:15;;;;;;;36.87;23.23;;;-3.70;99.90;;;;;;5056786;28;20195;-84
2023/02/08 00:19:42;;;;;;;36.83;22.37;;;-3.80;99.90;;;;;;5060401;28;20507;-84
2023/02/08 00:22:09;;;;;;;36.33;22.13;;;-3.90;99.90;;;;;;5059069;28;20219;-84
2023/02/08 00:24:36;;;;;;;34.50;21.83;;;-3.90;99.90;;;;;;5057275;28;20550;-84
2023/02/08 00:27:03;;;;;;;32.93;21.33;;;-3.80;99.90;;;;;;5060083;28;20198;-84
2023/02/08 00:29:31;;;;;;;36.20;22.83;;;-3.70;99.90;;;;;;5057821;28;20664;-83
2023/02/08 00:31:58;;;;;;;34.10;20.93;;;-3.80;99.90;;;;;;5057993;28;20222;-84
2023/02/08 00:34:24;;;;;;;34.90;21.43;;;-3.80;99.90;;;;;;5060161;28;20218;-84
2023/02/08 00:36:51;;;;;;;35.30;21.40;;;-3.80;99.90;;;;;;5059167;28;20217;-84
2023/02/08 00:39:20;;;;;;;37.53;22.57;;;-3.80;99.90;;;;;;5061246;28;20203;-84
2023/02/08 00:41:46;;;;;;;39.20;22.67;;;-3.80;99.90;;;;;;5058063;28;20617;-84
2023/02/08 00:44:13;;;;;;;34.90;21.30;;;-3.70;99.90;;;;;;5059949;28;20194;-83
2023/02/08 00:46:41;;;;;;;38.10;22.77;;;-3.70;99.90;;;;;;5058136;28;20198;-85
2023/02/08 00:49:08;;;;;;;36.40;21.47;;;-3.70;99.90;;;;;;5060363;28;20222;-84
2023/02/08 00:51:35;;;;;;;36.23;21.67;;;-3.70;99.90;;;;;;5059369;28;20766;-84
2023/02/08 00:54:02;;;;;;;33.50;19.50;;;-3.70;99.90;;;;;;5058559;28;20211;-84
2023/02/08 00:56:28;;;;;;;33.20;20.33;;;-3.60;99.90;;;;;;5064970;28;20203;-84
2023/02/08 00:58:55;;;;;;;34.43;20.77;;;-3.70;99.90;;;;;;5073805;28;20265;-84
2023/02/08 01:01:22;;;;;;;35.50;20.60;;;-3.60;99.90;;;;;;5059637;28;20233;-84
2023/02/08 01:03:50;;;;;;;35.07;21.00;;;-3.50;99.90;;;;;;5058743;28;20575;-85
2023/02/08 01:06:18;;;;;;;33.20;20.37;;;-3.50;99.90;;;;;;5059836;28;20682;-84
2023/02/08 01:08:45;;;;;;;34.10;20.17;;;-3.60;99.90;;;;;;5058175;28;20195;-84
2023/02/08 01:11:14;;;;;;;33.07;19.23;;;-3.60;99.90;;;;;;5060186;28;20637;-85
2023/02/08 01:13:41;;;;;;;33.13;19.47;;;-3.60;99.90;;;;;;5059084;28;20196;-84
2023/02/08 01:16:10;;;;;;;36.07;19.93;;;-3.60;99.90;;;;;;5058347;28;20203;-85
2023/02/08 01:18:38;;;;;;;33.57;19.47;;;-3.60;99.90;;;;;;5059361;28;20568;-84
2023/02/08 01:21:08;;;;;;;31.83;18.37;;;-3.70;99.90;;;;;;5058721;28;20227;-84
2023/02/08 01:23:35;;;;;;;33.40;18.30;;;-3.80;99.90;;;;;;5059757;28;20714;-85
2023/02/08 01:26:02;;;;;;;33.23;18.73;;;-3.90;99.90;;;;;;5059481;28;20203;-84
2023/02/08 01:28:29;;;;;;;33.73;19.60;;;-4.00;99.90;;;;;;5058592;28;20200;-84
2023/02/08 01:30:55;;;;;;;34.60;20.13;;;-3.90;99.90;;;;;;5059061;28;20226;-84
2023/02/08 01:33:22;;;;;;;33.40;19.63;;;-3.80;99.90;;;;;;5059965;28;20206;-84
2023/02/08 01:35:51;;;;;;;30.70;19.53;;;-3.70;99.90;;;;;;5058294;28;20201;-84
2023/02/08 01:38:19;;;;;;;31.37;18.70;;;-3.70;99.90;;;;;;5058658;28;20618;-84
2023/02/08 01:40:46;;;;;;;31.80;19.37;;;-3.80;99.90;;;;;;5063839;28;20191;-83
2023/02/08 01:43:21;;;;;;;31.60;18.27;;;-3.80;99.90;;;;;;5059060;28;20658;-84
2023/02/08 01:45:49;;;;;;;31.33;18.40;;;-3.70;99.90;;;;;;5051829;28;20187;-84
2023/02/08 01:48:20;;;;;;;32.37;18.67;;;-3.70;99.90;;;;;;5059113;28;20213;-84
2023/02/08 01:50:52;;;;;;;29.10;17.83;;;-3.70;99.90;;;;;;5059374;28;20219;-84
2023/02/08 01:53:21;;;;;;;32.07;17.63;;;-3.70;99.90;;;;;;5057339;28;20195;-84
2023/02/08 01:55:52;;;;;;;31.77;18.00;;;-3.70;99.90;;;;;;5059810;28;20207;-84
2023/02/08 01:58:20;;;;;;;31.60;17.23;;;-3.70;99.90;;;;;;5058080;28;20558;-84
2023/02/08 02:00:47;;;;;;;30.27;17.93;;;-3.80;99.90;;;;;;5059710;28;20207;-85
2023/02/08 02:03:15;;;;;;;32.20;18.27;;;-3.80;99.90;;;;;;5059616;28;20206;-84
2023/02/08 02:05:43;;;;;;;28.07;17.00;;;-3.70;99.90;;;;;;5056892;28;20647;-83
2023/02/08 02:08:12;;;;;;;31.53;17.87;;;-3.80;99.90;;;;;;5066391;28;20199;-84
2023/02/08 02:10:41;;;;;;;32.13;19.17;;;-3.70;99.90;;;;;;5069015;28;20205;-84
2023/02/08 02:13:11;;;;;;;30.50;17.90;;;-3.70;99.90;;;;;;5059488;28;20214;-84
2023/02/08 02:15:38;;;;;;;31.93;18.57;;;-3.70;99.90;;;;;;5058394;28;20199;-85
2023/02/08 02:18:08;;;;;;;31.80;17.77;;;-3.70;99.90;;;;;;5057779;28;20294;-84
2023/02/08 02:21:06;;;;;;;29.70;18.17;;;-3.70;99.90;;;;;;5060992;28;20686;-84
2023/02/08 02:23:59;;;;;;;33.70;18.20;;;-3.80;99.90;;;;;;5054541;28;20207;-83
2023/02/08 02:27:04;;;;;;;31.03;17.87;;;-3.80;99.90;;;;;;5058702;28;20237;-84
2023/02/08 02:29:51;;;;;;;30.83;17.30;;;-3.90;99.90;;;;;;5060147;28;20639;-84
2023/02/08 02:32:32;;;;;;;35.03;18.20;;;-3.90;99.90;;;;;;5063207;28;20314;-83
2023/02/08 02:35:07;;;;;;;33.07;18.20;;;-4.00;99.90;;;;;;5057860;28;20256;-84
2023/02/08 02:37:48;;;;;;;30.73;17.80;;;-4.00;99.90;;;;;;5059069;28;20208;-84
2023/02/08 02:40:24;;;;;;;31.53;17.63;;;-4.00;99.90;;;;;;5057270;28;20211;-85
2023/02/08 02:45:52;;;;;;;30.13;18.40;;;-3.90;99.90;;;;;;5057757;28;20214;-84
2023/02/08 02:48:29;;;;;;;33.17;19.73;;;-3.80;99.90;;;;;;5059151;28;20210;-84
2023/02/08 02:51:01;;;;;;;31.30;18.33;;;-3.90;99.90;;;;;;5059232;28;20260;-84
2023/02/08 02:53:34;;;;;;;33.17;18.73;;;-4.20;99.90;;;;;;5059176;28;20282;-84
2023/02/08 02:56:07;;;;;;;32.83;18.20;;;-4.20;99.90;;;;;;5058255;28;20674;-84
2023/02/08 02:58:34;;;;;;;30.50;18.40;;;-4.20;99.90;;;;;;5056975;28;20548;-83
2023/02/08 03:01:01;;;;;;;31.60;17.77;;;-4.30;99.90;;;;;;5056559;28;20221;-84
2023/02/08 03:03:32;;;;;;;33.87;18.97;;;-4.30;99.90;;;;;;5056505;28;20264;-83
2023/02/08 03:06:03;;;;;;;30.87;18.90;;;-4.20;99.90;;;;;;5061450;28;20215;-84
2023/02/08 03:08:58;;;;;;;31.93;17.70;;;-4.20;99.90;;;;;;5055925;28;20203;-84
2023/02/08 03:11:28;;;;;;;35.90;19.80;;;-4.00;99.90;;;;;;5055947;28;20603;-83
2023/02/08 03:14:08;;;;;;;31.73;18.73;;;-3.70;99.90;;;;;;5057156;28;20211;-84
2023/02/08 03:16:50;;;;;;;32.17;18.50;;;-3.70;99.90;;;;;;5055721;28;20209;-83
2023/02/08 03:19:21;;;;;;;32.87;18.00;;;-3.90;99.90;;;;;;5057130;28;20205;-84
2023/02/08 03:21:56;;;;;;;33.33;17.17;;;-4.20;99.90;;;;;;5055960;28;20582;-83
2023/02/08 03:24:27;;;;;;;32.97;17.20;;;-4.40;99.90;;;;;;5056822;28;20261;-84
2023/02/08 03:27:01;;;;;;;30.30;16.87;;;-4.50;99.90;;;;;;5055990;28;20209;-84
2023/02/08 03:29:43;;;;;;;29.97;16.30;;;-4.60;99.90;;;;;;5055129;28;20741;-84
2023/02/08 03:32:13;;;;;;;34.43;18.10;;;-4.50;99.90;;;;;;5056736;28;20222;-84
2023/02/08 03:34:48;;;;;;;31.77;17.37;;;-4.30;99.90;;;;;;5057506;28;20206;-84
2023/02/08 03:37:20;;;;;;;32.53;19.10;;;-4.30;99.90;;;;;;5055708;28;20207;-84
2023/02/08 03:39:50;;;;;;;31.93;19.03;;;-4.10;99.90;;;;;;5057075;28;20278;-84
2023/02/08 03:42:21;;;;;;;34.13;19.37;;;-4.30;99.90;;;;;;5056478;28;20658;-84
2023/02/08 03:44:54;;;;;;;32.17;18.10;;;-4.30;99.90;;;;;;5055383;28;20199;-84
2023/02/08 03:47:24;;;;;;;32.80;20.03;;;-4.20;99.90;;;;;;5055620;28;20214;-84
2023/02/08 03:49:54;;;;;;;31.53;17.60;;;-4.00;99.90;;;;;;5057423;28;20195;-84
2023/02/08 03:52:23;;;;;;;32.50;17.90;;;-3.90;99.90;;;;;;5051442;28;20233;-84
2023/02/08 03:54:52;;;;;;;30.17;18.23;;;-3.70;99.90;;;;;;5054437;28;20202;-83
2023/02/08 03:57:22;;;;;;;29.53;16.70;;;-3.80;99.90;;;;;;5055903;28;20199;-84
2023/02/08 03:59:55;;;;;;;35.53;18.33;;;-3.60;99.90;;;;;;5056906;28;20199;-83
2023/02/08 04:02:25;;;;;;;32.13;16.87;;;-3.80;99.90;;;;;;5056995;28;20620;-84
2023/02/08 04:04:55;;;;;;;32.97;17.10;;;-3.80;99.90;;;;;;5055964;28;20198;-84
2023/02/08 04:07:22;;;;;;;32.30;17.70;;;-3.90;99.90;;;;;;5054971;28;20214;-84
2023/02/08 04:09:49;;;;;;;30.70;17.73;;;-3.90;99.90;;;;;;5056805;28;20199;-84
2023/02/08 04:12:15;;;;;;;32.20;17.10;;;-3.80;99.90;;;;;;5055749;28;20219;-84
2023/02/08 04:14:42;;;;;;;34.73;18.53;;;-3.80;99.90;;;;;;5066586;28;20594;-84
2023/02/08 04:17:09;;;;;;;31.57;16.43;;;-3.90;99.90;;;;;;5054944;28;20203;-84
2023/02/08 04:19:36;;;;;;;31.70;16.60;;;-3.70;99.90;;;;;;5055100;28;20286;-84
2023/02/08 04:22:04;;;;;;;31.00;17.00;;;-3.80;99.90;;;;;;5054891;28;20233;-83
2023/02/08 04:24:31;;;;;;;34.17;17.80;;;-3.90;99.90;;;;;;5054886;28;20214;-84
2023/02/08 04:26:57;;;;;;;29.50;15.73;;;-4.10;99.90;;;;;;5055057;28;20566;-84
2023/02/08 04:29:24;;;;;;;30.87;16.63;;;-4.00;99.90;;;;;;5053132;28;20206;-83
2023/02/08 04:31:51;;;;;;;30.00;16.77;;;-3.90;99.90;;;;;;5052557;28;20822;-84
2023/02/08 04:34:18;;;;;;;29.73;16.10;;;-3.60;99.90;;;;;;5053297;28;20233;-83
2023/02/08 04:36:45;;;;;;;29.17;15.93;;;-3.70;99.90;;;;;;5052702;28;20199;-84
2023/02/08 04:39:13;;;;;;;29.37;15.50;;;-3.70;99.90;;;;;;5053275;28;20207;-84
2023/02/08 04:41:39;;;;;;;33.50;17.37;;;-3.80;99.90;;;;;;5053879;28;20583;-83
2023/02/08 04:44:06;;;;;;;30.60;16.87;;;-3.80;99.90;;;;;;5053853;28;20290;-84
2023/02/08 04:46:33;;;;;;;31.17;17.67;;;-3.70;99.90;;;;;;5054251;28;20546;-84
2023/02/08 04:49:00;;;;;;;31.50;16.33;;;-3.70;99.90;;;;;;5053983;28;20206;-84
2023/02/08 04:51:27;;;;;;;31.33;16.33;;;-3.70;99.90;;;;;;5054112;28;20234;-84
2023/02/08 04:53:53;;;;;;;31.20;17.23;;;-3.50;99.90;;;;;;5053729;28;20191;-84
2023/02/08 04:56:21;;;;;;;28.47;14.70;;;-3.50;99.90;;;;;;5053862;28;20210;-84
2023/02/08 04:58:49;;;;;;;32.70;17.63;;;-3.50;99.90;;;;;;5054731;28;20297;-84
2023/02/08 05:01:16;;;;;;;30.60;16.10;;;-3.30;99.90;;;;;;5053587;28;20230;-84
2023/02/08 05:03:42;;;;;;;26.27;14.67;;;-3.40;99.90;;;;;;5054259;28;20203;-84
2023/02/08 05:06:10;;;;;;;29.20;16.70;;;-3.40;99.90;;;;;;5057245;28;20206;-84
2023/02/08 05:08:37;;;;;;;29.17;15.57;;;-3.40;99.90;;;;;;5057435;28;20294;-83
2023/02/08 05:11:03;;;;;;;30.50;15.77;;;-3.50;99.90;;;;;;5057287;28;20225;-84
2023/02/08 05:13:32;;;;;;;29.37;15.27;;;-3.60;99.90;;;;;;5057170;28;20596;-83
2023/02/08 05:15:58;;;;;;;28.47;15.33;;;-4.00;99.90;;;;;;5057866;28;20195;-84
2023/02/08 05:18:25;;;;;;;26.90;14.40;;;-4.00;99.90;;;;;;5057261;28;20199;-83
2023/02/08 05:20:56;;;;;;;30.57;15.60;;;-4.20;99.90;;;;;;5057538;28;20199;-83
2023/02/08 05:23:22;;;;;;;30.70;16.07;;;-4.10;99.90;;;;;;5056862;28;20213;-84
2023/02/08 05:25:50;;;;;;;27.63;14.47;;;-4.00;99.90;;;;;;5057227;28;20202;-84
2023/02/08 05:28:16;;;;;;;27.27;14.60;;;-4.10;99.90;;;;;;5056980;28;20205;-83
2023/02/08 05:30:45;;;;;;;29.37;15.40;;;-4.00;99.90;;;;;;5056918;28;20199;-84
2023/02/08 05:33:12;;;;;;;29.77;15.17;;;-4.10;99.90;;;;;;5057138;28;20227;-84
2023/02/08 05:35:39;;;;;;;30.07;16.10;;;-4.40;99.90;;;;;;5057318;28;20211;-84
2023/02/08 05:38:06;;;;;;;32.90;17.10;;;-4.50;99.90;;;;;;5057381;28;20651;-83
2023/02/08 05:40:34;;;;;;;30.70;16.43;;;-4.30;99.90;;;;;;5056899;28;20199;-84
2023/02/08 05:43:00;;;;;;;30.80;15.47;;;-4.00;99.90;;;;;;5056622;28;20214;-84
2023/02/08 05:45:27;;;;;;;33.33;16.77;;;-4.10;99.90;;;;;;5056636;28;20206;-83
2023/02/08 05:47:55;;;;;;;29.73;16.77;;;-4.20;99.90;;;;;;5056875;28;20215;-83
2023/02/08 05:50:22;;;;;;;31.07;16.73;;;-4.30;99.90;;;;;;5057073;28;20664;-84
2023/02/08 05:52:49;;;;;;;30.63;15.67;;;-4.20;99.90;;;;;;5056378;28;20234;-83
2023/02/08 05:55:16;;;;;;;29.53;15.57;;;-4.30;99.90;;;;;;5056625;28;20215;-83
2023/02/08 05:57:42;;;;;;;28.77;15.00;;;-4.60;99.90;;;;;;5055715;28;20211;-84
2023/02/08 06:00:11;;;;;;;28.00;14.73;;;-4.80;99.90;;;;;;5055780;28;20270;-84
2023/02/08 06:02:37;;;;;;;29.97;16.40;;;-4.80;99.90;;;;;;5055260;28;20226;-83
2023/02/08 06:05:06;;;;;;;29.43;16.47;;;-4.80;99.90;;;;;;5055972;28;20191;-83
2023/02/08 06:07:33;;;;;;;30.97;16.30;;;-4.90;99.90;;;;;;5055646;28;20206;-83
2023/02/08 06:10:00;;;;;;;30.90;17.13;;;-4.90;99.90;;;;;;5055489;28;20705;-84
2023/02/08 06:12:26;;;;;;;32.30;16.70;;;-4.80;99.90;;;;;;5055288;28;20701;-83
2023/02/08 06:14:53;;;;;;;31.07;16.53;;;-4.80;99.90;;;;;;5055332;28;20210;-83
2023/02/08 06:17:20;;;;;;;30.70;16.83;;;-4.70;99.90;;;;;;5055283;28;20207;-84
2023/02/08 06:19:47;;;;;;;29.67;16.87;;;-4.90;99.90;;;;;;5055707;28;20209;-83
2023/02/08 06:22:15;;;;;;;30.23;15.17;;;-5.00;99.90;;;;;;5049320;28;20219;-84
2023/02/08 06:24:42;;;;;;;29.57;15.67;;;-5.00;99.90;;;;;;5055016;28;20267;-84
2023/02/08 06:27:09;;;;;;;30.70;16.87;;;-4.90;99.90;;;;;;5055470;28;20592;-84
2023/02/08 06:29:35;;;;;;;29.63;17.30;;;-4.90;99.90;;;;;;5055274;28;20199;-84
2023/02/08 06:32:02;;;;;;;34.57;18.50;;;-4.70;99.90;;;;;;5053865;28;20218;-83
2023/02/08 06:34:29;;;;;;;30.87;17.23;;;-4.90;99.90;;;;;;5054399;28;20215;-83
2023/02/08 06:36:58;;;;;;;30.80;17.17;;;-4.90;99.90;;;;;;5054565;28;20209;-83
2023/02/08 06:39:26;;;;;;;32.10;16.90;;;-4.80;99.90;;;;;;5055638;28;20199;-83
2023/02/08 06:41:53;;;;;;;29.30;16.67;;;-4.70;99.90;;;;;;5054987;28;20215;-83
2023/02/08 06:44:20;;;;;;;31.90;18.37;;;-4.60;99.90;;;;;;5054058;28;20210;-83
2023/02/08 06:46:47;;;;;;;30.57;17.33;;;-4.60;99.90;;;;;;5055822;28;20211;-83
2023/02/08 06:49:13;;;;;;;33.43;18.70;;;-4.90;99.90;;;;;;5054794;28;20569;-84
2023/02/08 06:51:40;;;;;;;34.47;17.27;;;-5.00;99.90;;;;;;5054881;28;20578;-84
2023/02/08 06:54:07;;;;;;;34.03;18.43;;;-5.00;99.90;;;;;;5054819;28;20229;-83
2023/02/08 06:56:36;;;;;;;33.47;18.50;;;-4.70;99.90;;;;;;5055856;28;20199;-83
2023/02/08 06:59:02;;;;;;;33.17;17.90;;;-4.70;99.90;;;;;;5054284;28;20282;-83
2023/02/08 07:01:29;;;;;;;33.53;17.73;;;-4.80;99.90;;;;;;5054910;28;20586;-83
2023/02/08 07:03:56;;;;;;;34.20;18.07;;;-4.80;99.90;;;;;;5054919;28;20278;-85
2023/02/08 07:06:23;;;;;;;33.47;18.33;;;-4.80;99.90;;;;;;5057725;28;20207;-82
2023/02/08 07:08:50;;;;;;;33.90;18.43;;;-4.90;99.90;;;;;;5055534;28;20275;-83
2023/02/08 07:11:19;;;;;;;35.53;18.67;;;-4.80;99.90;;;;;;5053734;28;20227;-83
2023/02/08 07:13:48;;;;;;;35.10;18.03;;;-4.80;99.90;;;;;;5054616;28;20227;-83
2023/02/08 07:16:15;;;;;;;35.70;18.73;;;-4.70;99.90;;;;;;5053776;28;20195;-83
2023/02/08 07:18:42;;;;;;;32.90;17.80;;;-4.50;99.90;;;;;;5055607;28;20290;-83
2023/02/08 07:21:10;;;;;;;35.43;18.07;;;-4.70;99.90;;;;;;5054192;28;20305;-83
2023/02/08 07:23:37;;;;;;;38.47;19.87;;;-4.60;99.90;;;;;;5053545;28;20570;-82
2023/02/08 07:26:06;;;;;;;42.40;21.67;;;-4.50;99.90;;;;;;5053069;28;20191;-83
2023/02/08 07:28:33;;;;;;;36.13;19.60;;;-4.50;99.90;;;;;;5053801;28;20277;-83
2023/02/08 07:31:05;;;;;;;37.97;21.07;;;-4.60;99.90;;;;;;5054034;28;20210;-83
2023/02/08 07:33:32;;;;;;;36.93;19.00;;;-4.70;99.90;;;;;;5054454;28;20223;-83
2023/02/08 07:35:59;;;;;;;37.37;18.77;;;-4.50;99.90;;;;;;5053667;28;20206;-82
2023/02/08 07:38:26;;;;;;;37.30;19.47;;;-4.20;99.90;;;;;;5053661;28;20297;-83
2023/02/08 07:40:59;;;;;;;36.83;20.50;;;-4.20;99.90;;;;;;5054936;28;20201;-83
2023/02/08 07:43:26;;;;;;;41.27;21.33;;;-4.20;99.90;;;;;;5054377;28;20199;-83
2023/02/08 07:45:53;;;;;;;35.37;19.80;;;-4.10;99.90;;;;;;5055230;28;20217;-83
2023/02/08 07:48:21;;;;;;;39.40;21.63;;;-4.00;99.90;;;;;;5055391;28;20664;-83
2023/02/08 07:50:48;;;;;;;36.23;18.43;;;-3.80;99.90;;;;;;5055391;28;20203;-83
2023/02/08 07:53:14;;;;;;;38.27;19.97;;;-3.60;99.90;;;;;;5054604;28;20233;-83
2023/02/08 07:55:41;;;;;;;38.40;20.20;;;-3.30;99.90;;;;;;5054971;28;20206;-83
2023/02/08 07:58:08;;;;;;;40.30;21.60;;;-2.90;99.90;;;;;;5055431;28;20203;-83
2023/02/08 08:00:35;;;;;;;32.40;18.33;;;-2.90;99.90;;;;;;5053716;28;20652;-83
2023/02/08 08:03:01;;;;;;;36.47;20.03;;;-2.60;99.90;;;;;;5054205;28;20223;-83
2023/02/08 08:05:30;;;;;;;38.27;21.30;;;-2.20;99.90;;;;;;5054965;28;20229;-83
2023/02/08 08:07:56;;;;;;;33.97;19.00;;;-1.60;99.90;;;;;;5057575;28;20198;-83
2023/02/08 08:10:23;;;;;;;34.03;18.60;;;-0.70;99.90;;;;;;5066282;28;20210;-83
2023/02/08 08:12:50;;;;;;;32.63;18.47;;;-0.80;99.90;;;;;;5054743;28;20705;-83
2023/02/08 08:15:17;;;;;;;31.40;15.63;;;-1.20;99.90;;;;;;5054324;28;20228;-83
2023/02/08 08:17:45;;;;;;;31.73;16.30;;;-1.30;99.90;;;;;;5055721;28;20645;-83
2023/02/08 08:20:12;;;;;;;32.37;15.83;;;-1.50;99.90;;;;;;5055453;28;20207;-83
2023/02/08 08:22:40;;;;;;;32.90;15.63;;;-1.70;99.90;;;;;;5053751;28;20363;-84
2023/02/08 08:25:07;;;;;;;31.63;15.03;;;-1.80;99.90;;;;;;5053866;28;20213;-85
2023/02/08 08:27:34;;;;;;;30.40;16.73;;;-1.90;99.90;;;;;;5055003;28;20229;-83
2023/02/08 08:30:02;;;;;;;28.73;14.63;;;-1.60;99.90;;;;;;5054382;28;20213;-82
2023/02/08 08:32:29;;;;;;;32.47;15.67;;;-0.50;99.90;;;;;;5051605;28;20642;-81
2023/02/08 08:34:55;;;;;;;32.60;17.30;;;-0.70;99.90;;;;;;5055104;28;20207;-83
2023/02/08 08:37:22;;;;;;;31.50;16.90;;;-0.80;99.90;;;;;;5054880;28;20205;-82
2023/02/08 08:39:50;;;;;;;32.77;16.60;;;0.50;99.90;;;;;;5057736;28;20202;-82
2023/02/08 08:42:17;;;;;;;31.50;15.40;;;0.50;99.90;;;;;;5058143;28;20717;-83
2023/02/08 08:44:44;;;;;;;32.83;15.53;;;1.50;99.90;;;;;;5059619;28;20213;-83
2023/02/08 08:47:11;;;;;;;40.97;22.60;;;1.20;99.90;;;;;;5055461;28;20660;-83
2023/02/08 08:49:39;;;;;;;29.80;15.63;;;0.70;99.90;;;;;;5052587;28;20211;-84
2023/02/08 08:52:07;;;;;;;31.13;14.87;;;0.60;99.90;;;;;;5046865;28;20242;-84
2023/02/08 08:54:34;;;;;;;31.57;14.83;;;0.60;99.90;;;;;;5047290;28;20245;-84
2023/02/08 08:57:03;;;;;;;32.47;16.00;;;0.40;99.90;;;;;;5047451;28;20210;-83
2023/02/08 08:59:30;;;;;;;34.40;16.93;;;0.50;99.90;;;;;;5051905;28;20197;-81
2023/02/08 09:01:57;;;;;;;31.97;16.67;;;0.60;99.90;;;;;;5048760;28;20549;-82
2023/02/08 09:04:24;;;;;;;35.10;15.93;;;0.70;99.90;;;;;;5047825;28;20200;-82
2023/02/08 09:06:51;;;;;;;34.37;16.93;;;0.60;99.90;;;;;;5059021;28;20233;-83
2023/02/08 09:09:18;;;;;;;34.80;15.90;;;0.30;99.90;;;;;;5059114;28;20556;-83
2023/02/08 09:11:45;;;;;;;34.60;16.00;;;0.50;99.90;;;;;;5054464;28;20215;-84
2023/02/08 09:14:14;;;;;;;39.60;17.90;;;0.50;99.90;;;;;;5054576;28;20223;-84
2023/02/08 09:16:46;;;;;;;36.33;19.37;;;0.40;99.90;;;;;;5055634;28;20285;-83
2023/02/08 09:19:13;;;;;;;36.17;17.93;;;0.50;99.90;;;;;;5055036;28;20204;-83
2023/02/08 09:21:40;;;;;;;38.13;16.90;;;0.90;99.90;;;;;;5049722;28;20223;-85
2023/02/08 09:24:07;;;;;;;32.13;16.50;;;0.60;99.90;;;;;;5055917;28;20690;-83
2023/02/08 09:26:34;;;;;;;34.33;16.50;;;0.60;99.90;;;;;;5053541;28;20585;-84
2023/02/08 09:29:01;;;;;;;32.87;15.57;;;0.40;99.90;;;;;;5055810;28;20207;-85
2023/02/08 09:31:31;;;;;;;35.10;16.77;;;0.10;99.90;;;;;;5053724;28;20234;-83
2023/02/08 09:34:00;;;;;;;34.10;16.70;;;0.00;99.90;;;;;;5045898;28;20221;-85
2023/02/08 09:36:29;;;;;;;31.50;15.67;;;0.00;99.90;;;;;;5041037;28;20199;-83
2023/02/08 09:38:59;;;;;;;30.33;14.83;;;0.20;99.90;;;;;;5038162;28;20214;-84
2023/02/08 09:41:42;;;;;;;29.67;15.23;;;0.30;99.90;;;;;;5045726;28;20269;-84
2023/02/08 09:44:20;;;;;;;32.13;15.27;;;0.50;99.90;;;;;;5045342;28;20206;-85
2023/02/08 09:46:56;;;;;;;30.00;13.93;;;0.60;99.90;;;;;;5045321;28;20217;-83
2023/02/08 09:49:27;;;;;;;32.37;15.83;;;0.70;99.90;;;;;;5046845;28;20207;-84
2023/02/08 09:51:58;;;;;;;30.90;15.47;;;0.70;99.90;;;;;;5043651;28;20219;-84
2023/02/08 09:54:30;;;;;;;32.80;14.57;;;0.80;99.90;;;;;;5038246;28;20229;-84
2023/02/08 09:57:00;;;;;;;31.90;14.40;;;0.90;99.90;;;;;;5045187;28;20204;-85
2023/02/08 09:59:29;;;;;;;29.83;14.90;;;0.90;99.90;;;;;;5043482;28;20240;-84
2023/02/08 10:02:03;;;;;;;30.20;14.33;;;0.90;99.90;;;;;;5054254;28;20234;-86
2023/02/08 10:04:38;;;;;;;34.20;15.63;;;1.20;99.90;;;;;;5053880;28;20292;-86
2023/02/08 10:07:04;;;;;;;31.80;14.10;;;1.20;99.90;;;;;;5051293;28;20206;-85
2023/02/08 10:09:32;;;;;;;34.00;15.17;;;1.10;99.90;;;;;;5039202;28;20670;-85
2023/02/08 10:12:14;;;;;;;29.03;13.70;;;1.30;99.90;;;;;;5039738;28;20216;-85
2023/02/08 10:14:57;;;;;;;31.30;14.57;;;1.40;99.90;;;;;;5039517;28;20243;-86
2023/02/08 10:17:40;;;;;;;31.77;14.57;;;1.50;99.90;;;;;;5051220;28;20208;-87
2023/02/08 10:20:18;;;;;;;32.47;14.17;;;1.40;99.90;;;;;;5049633;28;20202;-86
2023/02/08 10:22:57;;;;;;;28.67;13.20;;;1.60;99.90;;;;;;5051843;28;20219;-86
2023/02/08 10:25:39;;;;;;;28.77;13.83;;;1.70;99.90;;;;;;5052102;28;20203;-86
2023/02/08 10:28:26;;;;;;;31.83;14.60;;;1.70;99.90;;;;;;5051072;28;20286;-87
2023/02/08 10:30:57;;;;;;;31.73;14.57;;;1.80;99.90;;;;;;5049249;28;20202;-87
2023/02/08 10:33:29;;;;;;;30.60;13.83;;;2.00;99.90;;;;;;5052085;28;20667;-87
2023/02/08 10:35:57;;;;;;;27.93;12.53;;;1.90;99.90;;;;;;5046544;28;20205;-87
2023/02/08 10:38:27;;;;;;;31.67;14.10;;;2.00;99.90;;;;;;5049341;28;20203;-87
2023/02/08 10:40:58;;;;;;;30.60;13.53;;;2.10;99.90;;;;;;5055934;28;20194;-84
2023/02/08 10:43:35;;;;;;;29.53;13.07;;;2.20;99.90;;;;;;5049957;28;20647;-85
2023/02/08 10:46:09;;;;;;;29.57;14.00;;;2.20;99.90;;;;;;5050186;28;20210;-85
2023/02/08 10:48:51;;;;;;;29.50;15.17;;;2.30;99.90;;;;;;5054174;28;20277;-85
2023/02/08 10:51:19;;;;;;;31.90;13.73;;;2.40;99.90;;;;;;5049241;28;20223;-85
2023/02/08 10:53:47;;;;;;;30.07;13.60;;;2.50;99.90;;;;;;5047736;28;20228;-85
2023/02/08 10:56:33;;;;;;;29.67;13.77;;;2.50;99.90;;;;;;5047633;28;20210;-84
2023/02/08 10:59:06;;;;;;;26.20;12.87;;;2.70;99.90;;;;;;5051969;28;20571;-85
2023/02/08 11:01:33;;;;;;;25.93;12.63;;;2.70;99.90;;;;;;5052787;28;20258;-85
2023/02/08 11:04:04;;;;;;;26.33;13.07;;;2.80;99.90;;;;;;5051991;28;20560;-85
2023/02/08 11:06:30;;;;;;;26.43;12.90;;;3.00;99.90;;;;;;5053655;28;20203;-84
2023/02/08 11:08:58;;;;;;;25.77;12.90;;;3.00;99.90;;;;;;5055986;28;20195;-85
2023/02/08 11:11:28;;;;;;;27.63;13.90;;;3.00;99.90;;;;;;5059494;28;20272;-85
2023/02/08 11:14:08;;;;;;;26.30;12.70;;;3.00;99.90;;;;;;5054075;28;20223;-84
2023/02/08 11:16:35;;;;;;;25.23;13.37;;;3.10;99.90;;;;;;5052342;28;20286;-85
2023/02/08 11:19:06;;;;;;;27.10;12.70;;;3.20;99.90;;;;;;5048978;28;20195;-86
2023/02/08 11:21:35;;;;;;;31.47;12.83;;;3.20;99.90;;;;;;5050799;28;20314;-87
2023/02/08 11:24:26;;;;;;;28.13;13.93;;;3.20;99.90;;;;;;5050072;28;20207;-86
2023/02/08 11:26:55;;;;;;;29.40;13.73;;;3.30;99.90;;;;;;5048976;28;20614;-86
2023/02/08 11:29:23;;;;;;;28.10;13.83;;;3.40;99.90;;;;;;5052032;28;20210;-86
2023/02/08 11:31:59;;;;;;;30.43;13.77;;;3.50;99.90;;;;;;5046971;28;20543;-87
2023/02/08 11:34:31;;;;;;;27.90;13.77;;;3.50;99.90;;;;;;5050247;28;20219;-88
2023/02/08 11:36:59;;;;;;;28.50;13.13;;;3.60;99.90;;;;;;5050566;28;20714;-84
2023/02/08 11:39:31;;;;;;;29.30;12.97;;;3.40;99.90;;;;;;5047746;28;20203;-85
2023/02/08 11:42:00;;;;;;;27.53;13.23;;;3.40;99.90;;;;;;5045612;28;20225;-87
2023/02/08 11:44:31;;;;;;;28.23;13.60;;;3.50;99.90;;;;;;5050186;28;20226;-84
2023/02/08 11:47:00;;;;;;;27.23;12.60;;;3.50;99.90;;;;;;5048138;28;20294;-85
2023/02/08 11:49:36;;;;;;;27.80;12.57;;;3.50;99.90;;;;;;5049524;28;20656;-87
2023/02/08 11:52:05;;;;;;;24.47;12.20;;;3.50;99.90;;;;;;5047559;28;20219;-86
2023/02/08 11:54:36;;;;;;;24.20;11.50;;;3.60;99.90;;;;;;5047610;28;20227;-86
2023/02/08 11:57:11;;;;;;;24.37;11.50;;;3.50;99.90;;;;;;5052676;28;20579;-86
2023/02/08 11:59:38;;;;;;;23.53;11.83;;;3.60;99.90;;;;;;5048101;28;20240;-83
2023/02/08 12:02:34;;;;;;;23.67;11.10;;;3.80;99.90;;;;;;5042579;28;20698;-87
2023/02/08 12:05:03;;;;;;;24.97;11.67;;;3.90;99.90;;;;;;5043980;28;20205;-85
2023/02/08 12:07:45;;;;;;;23.63;11.43;;;3.80;99.90;;;;;;5048458;28;20203;-85
2023/02/08 12:10:24;;;;;;;23.73;11.43;;;3.80;99.90;;;;;;5045396;28;20207;-83
2023/02/08 12:13:12;;;;;;;25.03;11.60;;;3.80;99.90;;;;;;5044465;28;20639;-85
2023/02/08 12:15:52;;;;;;;23.47;11.53;;;3.80;99.90;;;;;;5053675;28;20219;-86
2023/02/08 12:18:37;;;;;;;24.10;11.20;;;4.00;99.90;;;;;;5049300;28;20213;-86
2023/02/08 12:21:12;;;;;;;25.17;11.10;;;3.90;99.90;;;;;;5049986;28;20601;-86
2023/02/08 12:23:49;;;;;;;25.73;11.60;;;4.00;99.90;;;;;;5051416;28;20199;-86
2023/02/08 12:26:38;;;;;;;25.17;11.80;;;4.20;99.90;;;;;;5047785;28;20211;-86
2023/02/08 12:29:28;;;;;;;28.57;10.87;;;4.40;99.90;;;;;;5049789;28;20203;-86
2023/02/08 12:32:11;;;;;;;23.30;10.03;;;5.00;99.90;;;;;;5051834;28;20700;-86
2023/02/08 12:34:57;;;;;;;19.53;8.90;;;6.00;99.90;;;;;;5048474;28;20226;-86
2023/02/08 12:40:51;;;;;;;23.07;9.20;;;6.40;99.90;;;;;;5052067;28;20210;-86
2023/02/08 12:43:34;;;;;;;21.53;9.07;;;6.40;99.90;;;;;;5051058;28;20674;-86
2023/02/08 12:46:29;;;;;;;21.43;9.43;;;6.60;99.90;;;;;;5050249;28;20199;-86
2023/02/08 12:49:15;;;;;;;19.50;9.13;;;7.00;99.90;;;;;;5056415;28;20198;-87
2023/02/08 12:51:50;;;;;;;23.10;10.87;;;6.50;99.90;;;;;;5050532;28;20227;-87